Avondale, Arizona
Current Conditions -  °F | °C
As of 8:47 PM on Thursday 27 Nov 2014 (Local Time) from KGYR Reporting Station
Few Clouds Few Clouds  
Wind Chill: 16°   Ceiling: Unl
Heat Index: 16°   Visibility: 10mi
Dew Point:   Wind: 6mph
Humidity: 39%   Direction: NA
Pressure: 30.08"   Gusts: NA
Location:  33.44°N, 112.34°W
Report Text: KGYR 280347Z VRB05KT 10SM FEW250 16/02 A3008 RMK LAST
Loading
Personal Weather Stations






























Interactive Weather Map New forecast layout! Learn more

10-Day Weather Forecast

Advertisements
Track Severe Weather on mobile